createdAt,value
2018-08-08T00:01:36.641Z,98.50
2018-08-08T00:04:04.913Z,98.50
2018-08-08T00:06:33.242Z,99.20
2018-08-08T00:09:01.476Z,99.70
2018-08-08T00:11:30.265Z,99.90
2018-08-08T00:13:58.533Z,99.90
2018-08-08T00:16:26.810Z,99.90
2018-08-08T00:18:55.045Z,99.90
2018-08-08T00:21:23.261Z,99.90
2018-08-08T00:23:51.503Z,99.90
2018-08-08T00:26:19.790Z,99.90
2018-08-08T00:28:48.332Z,99.90
2018-08-08T00:31:16.593Z,99.90
2018-08-08T00:33:44.803Z,99.90
2018-08-08T00:36:13.033Z,99.90
2018-08-08T00:38:41.261Z,99.90
2018-08-08T00:41:09.524Z,99.90
2018-08-08T00:43:37.738Z,99.90
2018-08-08T00:46:05.996Z,99.90
2018-08-08T00:48:34.238Z,99.90
2018-08-08T00:51:02.526Z,99.90
2018-08-08T00:53:30.745Z,99.90
2018-08-08T00:55:58.976Z,99.90
2018-08-08T00:58:27.216Z,99.90
2018-08-08T01:00:55.465Z,99.90
2018-08-08T01:03:23.689Z,99.90
2018-08-08T01:05:51.910Z,99.90
2018-08-08T01:08:20.174Z,99.90
2018-08-08T01:10:48.408Z,99.90
2018-08-08T01:13:16.682Z,99.90
2018-08-08T01:15:45.233Z,99.90
2018-08-08T01:18:13.457Z,99.90
2018-08-08T01:20:41.694Z,99.90
2018-08-08T01:23:09.947Z,99.90
2018-08-08T01:25:38.225Z,99.90
2018-08-08T01:28:06.473Z,99.90
2018-08-08T01:30:34.780Z,99.90
2018-08-08T01:33:03.246Z,99.90
2018-08-08T01:35:31.489Z,99.90
2018-08-08T01:37:59.776Z,99.90
2018-08-08T01:40:28.033Z,99.90
2018-08-08T01:42:56.281Z,99.90
2018-08-08T01:45:24.586Z,99.90
2018-08-08T01:47:52.769Z,99.90
2018-08-08T01:50:21.037Z,99.90
2018-08-08T01:52:49.271Z,99.90
2018-08-08T01:55:17.478Z,99.90
2018-08-08T01:57:45.973Z,99.90
2018-08-08T02:00:15.787Z,99.90
2018-08-08T02:02:44.049Z,99.90
2018-08-08T02:05:12.398Z,99.90
2018-08-08T02:07:40.772Z,99.90
2018-08-08T02:10:11.463Z,99.90
2018-08-08T02:12:40.065Z,99.90
2018-08-08T02:15:10.618Z,99.90
2018-08-08T02:17:38.955Z,99.90
2018-08-08T02:20:08.143Z,99.90
2018-08-08T02:22:36.427Z,99.90
2018-08-08T02:25:05.107Z,99.90
2018-08-08T02:27:33.389Z,99.90
2018-08-08T02:30:01.652Z,99.90
2018-08-08T02:32:29.893Z,99.90
2018-08-08T02:34:58.137Z,99.90
2018-08-08T02:37:26.514Z,99.90
2018-08-08T02:39:54.893Z,99.90
2018-08-08T02:42:23.126Z,99.90
2018-08-08T02:44:51.356Z,99.90
2018-08-08T02:47:19.628Z,99.90
2018-08-08T02:49:47.839Z,99.90
2018-08-08T02:52:16.078Z,99.90
2018-08-08T02:54:44.313Z,99.90
2018-08-08T02:57:12.614Z,99.90
2018-08-08T02:59:40.845Z,99.90
2018-08-08T03:02:09.441Z,99.90
2018-08-08T03:04:37.726Z,99.90
2018-08-08T03:07:06.259Z,99.90
2018-08-08T03:09:34.494Z,99.90
2018-08-08T03:12:02.733Z,99.90
2018-08-08T03:14:30.989Z,99.90
2018-08-08T03:16:59.651Z,99.90
2018-08-08T03:19:27.897Z,99.90
2018-08-08T03:21:56.145Z,99.90
2018-08-08T03:24:24.390Z,99.90
2018-08-08T03:26:52.633Z,99.90
2018-08-08T03:29:20.877Z,99.90
2018-08-08T03:31:49.125Z,99.90
2018-08-08T03:34:17.346Z,99.90
2018-08-08T03:36:45.611Z,99.90
2018-08-08T03:39:13.857Z,99.90
2018-08-08T03:41:42.233Z,99.90
2018-08-08T03:44:10.472Z,99.90
2018-08-08T03:46:38.917Z,99.90
2018-08-08T03:49:07.197Z,99.90
2018-08-08T03:51:35.438Z,99.90
2018-08-08T03:54:03.666Z,99.90
2018-08-08T03:56:31.921Z,99.90
2018-08-08T03:59:00.343Z,99.90
2018-08-08T04:01:28.539Z,99.90
2018-08-08T04:03:56.745Z,99.90
2018-08-08T04:06:25.008Z,99.90
2018-08-08T04:08:53.385Z,99.90
2018-08-08T04:11:21.606Z,99.90
2018-08-08T04:13:49.834Z,99.90
2018-08-08T04:16:18.037Z,99.90
2018-08-08T04:18:46.303Z,99.90
2018-08-08T04:21:14.563Z,99.90
2018-08-08T04:23:42.761Z,99.80
2018-08-08T04:26:10.961Z,99.40
2018-08-08T04:28:39.198Z,99.00
2018-08-08T04:31:07.641Z,98.80
2018-08-08T04:33:35.872Z,98.80
2018-08-08T04:36:04.149Z,98.90
2018-08-08T04:38:32.405Z,98.80
2018-08-08T04:41:00.621Z,99.20
2018-08-08T04:43:28.869Z,99.10
2018-08-08T04:45:57.602Z,99.10
2018-08-08T04:48:25.818Z,99.70
2018-08-08T04:50:54.150Z,99.90
2018-08-08T04:53:22.410Z,99.90
2018-08-08T04:55:50.649Z,99.90
2018-08-08T04:58:18.931Z,99.90
2018-08-08T05:00:47.160Z,99.70
2018-08-08T05:03:15.365Z,99.10
2018-08-08T05:05:43.673Z,98.90
2018-08-08T05:14:56.011Z,98.80
2018-08-08T05:17:24.285Z,99.50
2018-08-08T05:19:52.767Z,98.60
2018-08-08T05:22:21.129Z,98.10
2018-08-08T05:24:49.321Z,97.40
2018-08-08T05:27:17.597Z,97.00
2018-08-08T05:29:46.776Z,96.20
2018-08-08T05:32:15.045Z,95.70
2018-08-08T05:34:43.261Z,94.30
2018-08-08T05:37:11.797Z,93.60
2018-08-08T05:39:39.994Z,93.00
2018-08-08T05:42:08.269Z,92.10
2018-08-08T05:44:36.724Z,91.40
2018-08-08T05:47:05.026Z,90.90
2018-08-08T05:49:33.281Z,90.70
2018-08-08T05:52:01.659Z,90.50
2018-08-08T05:54:29.866Z,90.60
2018-08-08T05:56:58.121Z,90.60
2018-08-08T05:59:26.492Z,90.70
2018-08-08T06:01:54.743Z,90.70
2018-08-08T06:04:22.968Z,90.70
2018-08-08T06:06:51.273Z,90.60
2018-08-08T06:09:19.529Z,90.80
2018-08-08T06:11:47.967Z,90.30
2018-08-08T06:14:16.262Z,89.80
2018-08-08T06:16:44.447Z,89.20
2018-08-08T06:19:12.726Z,87.90
2018-08-08T06:21:40.975Z,86.30
2018-08-08T06:24:09.357Z,85.90
2018-08-08T06:26:37.545Z,84.10
2018-08-08T06:29:05.820Z,80.80
2018-08-08T06:31:34.034Z,80.30
2018-08-08T06:34:02.256Z,79.10
2018-08-08T06:36:30.581Z,78.80
2018-08-08T06:38:58.822Z,78.70
2018-08-08T06:41:27.149Z,77.70
2018-08-08T06:43:55.491Z,76.90
2018-08-08T06:46:23.566Z,76.00
2018-08-08T06:48:51.781Z,75.20
2018-08-08T06:51:20.038Z,74.20
2018-08-08T06:53:48.321Z,72.60
2018-08-08T06:56:16.550Z,71.50
2018-08-08T06:58:44.757Z,70.50
2018-08-08T07:01:13.025Z,68.80
2018-08-08T07:03:41.301Z,67.60
2018-08-08T07:06:09.520Z,67.20
2018-08-08T07:08:37.742Z,65.80
2018-08-08T07:11:06.253Z,65.30
2018-08-08T07:13:34.521Z,65.00
2018-08-08T07:16:02.810Z,64.50
2018-08-08T07:18:31.066Z,63.60
2018-08-08T07:20:59.548Z,62.80
2018-08-08T07:23:27.791Z,61.90
2018-08-08T07:25:56.321Z,60.40
2018-08-08T07:28:24.812Z,60.00
2018-08-08T07:30:53.120Z,59.20
2018-08-08T07:33:21.353Z,58.70
2018-08-08T07:35:49.638Z,59.30
2018-08-08T07:38:17.909Z,59.90
2018-08-08T07:40:46.261Z,60.20
2018-08-08T07:43:14.457Z,61.00
2018-08-08T07:45:42.763Z,61.70
2018-08-08T07:48:11.001Z,62.40
2018-08-08T07:50:39.535Z,62.70
2018-08-08T07:53:08.528Z,63.00
2018-08-08T07:55:36.926Z,63.60
2018-08-08T07:58:05.352Z,63.50
2018-08-08T08:00:33.492Z,63.50
2018-08-08T08:03:01.754Z,63.80
2018-08-08T08:05:30.153Z,63.80
2018-08-08T08:07:59.013Z,63.20
2018-08-08T08:10:27.441Z,63.00
2018-08-08T08:12:56.097Z,64.60
2018-08-08T08:15:24.355Z,63.90
2018-08-08T08:17:52.669Z,63.50
2018-08-08T08:20:20.995Z,63.70
2018-08-08T08:22:50.455Z,64.00
2018-08-08T08:25:18.761Z,64.60
2018-08-08T08:27:48.207Z,65.00
2018-08-08T08:30:17.797Z,65.40
2018-08-08T08:32:46.770Z,65.90
2018-08-08T08:35:15.587Z,66.40
2018-08-08T08:37:44.028Z,66.90
2018-08-08T08:40:13.230Z,65.90
2018-08-08T08:42:42.260Z,64.30
2018-08-08T08:45:10.702Z,63.10
2018-08-08T08:47:39.939Z,62.40
2018-08-08T08:50:08.963Z,63.20
2018-08-08T08:52:37.229Z,63.60
2018-08-08T08:55:05.935Z,63.70
2018-08-08T08:57:34.973Z,63.60
2018-08-08T09:00:03.380Z,64.40
2018-08-08T09:02:33.533Z,65.10
2018-08-08T09:05:01.837Z,65.40
2018-08-08T09:07:30.255Z,65.20
2018-08-08T09:09:58.565Z,65.60
2018-08-08T09:12:27.017Z,65.90
2018-08-08T09:14:55.351Z,67.10
2018-08-08T09:17:24.202Z,69.60
2018-08-08T09:19:52.839Z,71.10
2018-08-08T09:22:21.120Z,72.30
2018-08-08T09:24:50.687Z,72.70
2018-08-08T09:27:19.040Z,72.90
2018-08-08T09:29:52.714Z,72.20
2018-08-08T09:32:21.143Z,71.80
2018-08-08T09:34:49.430Z,70.30
2018-08-08T09:37:18.626Z,67.90
2018-08-08T09:39:46.953Z,66.10
2018-08-08T09:42:15.266Z,64.70
2018-08-08T09:44:43.594Z,63.40
2018-08-08T09:47:11.897Z,61.00
2018-08-08T09:49:40.214Z,59.80
2018-08-08T09:52:08.566Z,60.20
2018-08-08T09:54:36.829Z,61.20
2018-08-08T09:57:05.201Z,62.80
2018-08-08T09:59:33.858Z,64.20
2018-08-08T10:02:07.582Z,65.40
2018-08-08T10:04:36.877Z,66.50
2018-08-08T10:07:06.292Z,67.90
2018-08-08T10:09:35.026Z,67.90
2018-08-08T10:12:03.737Z,68.00
2018-08-08T10:14:32.016Z,68.20
2018-08-08T10:17:00.787Z,68.10
2018-08-08T10:19:29.135Z,66.60
2018-08-08T10:21:57.438Z,65.60
2018-08-08T10:24:25.735Z,64.60
2018-08-08T10:26:54.051Z,64.40
2018-08-08T10:29:22.306Z,64.20
2018-08-08T10:31:50.534Z,64.50
2018-08-08T10:34:18.799Z,64.70
2018-08-08T10:36:47.045Z,65.50
2018-08-08T10:39:15.302Z,64.10
2018-08-08T10:41:43.567Z,63.30
2018-08-08T10:44:11.861Z,62.10
2018-08-08T10:46:40.073Z,59.70
2018-08-08T10:49:08.309Z,56.80
2018-08-08T10:51:36.557Z,55.10
2018-08-08T10:54:04.935Z,53.30
2018-08-08T10:56:33.220Z,51.30
2018-08-08T10:59:01.629Z,50.60
2018-08-08T11:01:30.189Z,48.30
2018-08-08T11:03:58.461Z,46.50
2018-08-08T11:06:26.717Z,44.80
2018-08-08T11:08:55.004Z,44.00
2018-08-08T11:11:23.249Z,43.10
2018-08-08T11:13:51.513Z,42.90
2018-08-08T11:16:20.057Z,42.40
2018-08-08T11:18:48.312Z,42.60
2018-08-08T11:21:16.598Z,43.80
2018-08-08T11:23:45.136Z,44.80
2018-08-08T11:26:13.371Z,44.40
2018-08-08T11:28:41.594Z,44.00
2018-08-08T11:31:10.465Z,44.00
2018-08-08T11:33:38.798Z,44.00
2018-08-08T11:36:07.074Z,44.00
2018-08-08T11:38:35.437Z,44.50
2018-08-08T11:41:04.022Z,44.90
2018-08-08T11:43:32.376Z,44.70
2018-08-08T11:46:00.627Z,43.90
2018-08-08T11:48:29.225Z,44.00
2018-08-08T11:50:58.357Z,43.90
2018-08-08T11:53:26.750Z,43.60
2018-08-08T11:55:55.020Z,42.40
2018-08-08T11:58:23.409Z,41.60
2018-08-08T12:00:51.725Z,41.60
2018-08-08T12:03:20.032Z,41.50
2018-08-08T12:05:48.513Z,41.50
2018-08-08T12:08:16.889Z,40.80
2018-08-08T12:10:45.223Z,39.80
2018-08-08T12:13:13.575Z,39.70
2018-08-08T12:15:41.818Z,38.30
2018-08-08T12:18:10.098Z,37.40
2018-08-08T12:20:38.434Z,35.80
2018-08-08T12:23:07.643Z,34.70
2018-08-08T12:25:36.064Z,33.40
2018-08-08T12:28:04.649Z,32.00
2018-08-08T12:30:32.993Z,31.40
2018-08-08T12:33:01.533Z,30.00
2018-08-08T12:35:30.082Z,28.40
2018-08-08T12:37:58.379Z,25.90
2018-08-08T12:40:26.740Z,23.70
2018-08-08T12:42:55.836Z,22.30
2018-08-08T12:45:24.174Z,21.50
2018-08-08T12:47:52.550Z,20.40
2018-08-08T12:50:21.521Z,19.50
2018-08-08T12:52:49.865Z,19.50
2018-08-08T12:55:18.526Z,20.00
2018-08-08T12:57:46.908Z,20.40
2018-08-08T13:00:15.897Z,20.70
2018-08-08T13:02:44.287Z,20.60
2018-08-08T13:05:12.699Z,20.00
2018-08-08T13:07:41.067Z,19.30
2018-08-08T13:10:09.421Z,18.70
2018-08-08T13:12:37.763Z,18.30
2018-08-08T13:15:07.109Z,17.60
2018-08-08T13:17:35.800Z,17.30
2018-08-08T13:20:04.609Z,17.50
2018-08-08T13:22:32.937Z,17.50
2018-08-08T13:25:01.546Z,17.60
2018-08-08T13:27:29.896Z,18.10
2018-08-08T13:29:58.238Z,17.70
2018-08-08T13:32:26.697Z,17.50
2018-08-08T13:34:55.821Z,17.30
2018-08-08T13:37:24.230Z,16.90
2018-08-08T13:39:52.562Z,16.50
2018-08-08T13:42:20.902Z,16.40
2018-08-08T13:44:49.525Z,16.10
2018-08-08T13:47:17.935Z,16.00
2018-08-08T13:49:46.358Z,15.70
2018-08-08T13:52:14.979Z,15.50
2018-08-08T13:54:43.277Z,15.50
2018-08-08T13:57:11.559Z,15.50
2018-08-08T13:59:39.890Z,15.30
2018-08-08T14:02:08.472Z,15.10
2018-08-08T14:04:36.818Z,15.20
2018-08-08T14:07:05.151Z,15.10
2018-08-08T14:09:33.650Z,15.20
2018-08-08T14:12:02.093Z,15.20
2018-08-08T14:14:30.382Z,15.80
2018-08-08T14:16:58.674Z,16.00
2018-08-08T14:19:26.982Z,16.30
2018-08-08T14:21:55.298Z,16.20
2018-08-08T14:24:23.846Z,17.40
2018-08-08T14:26:52.189Z,17.10
2018-08-08T14:29:20.490Z,17.10
2018-08-08T14:31:48.808Z,16.70
2018-08-08T14:34:18.084Z,16.70
2018-08-08T14:36:46.524Z,16.50
2018-08-08T14:39:14.842Z,16.10
2018-08-08T14:41:43.121Z,16.00
2018-08-08T14:44:11.430Z,15.80
2018-08-08T14:46:40.306Z,15.60
2018-08-08T14:49:09.269Z,15.40
2018-08-08T14:51:37.579Z,15.20
2018-08-08T14:54:06.472Z,15.00
2018-08-08T14:56:34.949Z,14.80
2018-08-08T14:59:03.604Z,15.10
2018-08-08T15:01:32.241Z,15.00
2018-08-08T15:04:00.493Z,14.80
2018-08-08T15:06:28.762Z,14.80
2018-08-08T15:08:57.365Z,14.80
2018-08-08T15:11:25.611Z,14.80
2018-08-08T15:13:53.955Z,14.80
2018-08-08T15:16:22.188Z,14.70
2018-08-08T15:18:50.765Z,14.70
2018-08-08T15:21:19.042Z,14.70
2018-08-08T15:23:47.353Z,14.70
2018-08-08T15:26:15.630Z,14.50
2018-08-08T15:28:43.927Z,14.40
2018-08-08T15:31:12.566Z,14.20
2018-08-08T15:33:40.743Z,14.20
2018-08-08T15:36:09.005Z,14.20
2018-08-08T15:38:37.274Z,14.20
2018-08-08T15:41:05.525Z,14.10
2018-08-08T15:43:33.829Z,14.60
2018-08-08T15:46:02.172Z,15.10
2018-08-08T15:48:30.593Z,15.80
2018-08-08T15:50:58.867Z,16.70
2018-08-08T15:53:27.194Z,17.20
2018-08-08T15:55:55.493Z,17.20
2018-08-08T15:58:23.766Z,17.60
2018-08-08T16:00:52.071Z,18.50
2018-08-08T16:03:20.825Z,19.40
2018-08-08T16:05:49.120Z,20.30
2018-08-08T16:08:17.417Z,21.60
2018-08-08T16:10:45.648Z,22.60
2018-08-08T16:13:13.869Z,23.80
2018-08-08T16:15:42.235Z,24.50
2018-08-08T16:18:10.506Z,25.10
2018-08-08T16:20:38.765Z,24.40
2018-08-08T16:23:07.250Z,24.60
2018-08-08T16:25:35.551Z,24.70
2018-08-08T16:28:03.810Z,23.30
2018-08-08T16:30:32.121Z,21.70
2018-08-08T16:33:00.378Z,20.50
2018-08-08T16:35:28.648Z,19.70
2018-08-08T16:37:57.215Z,19.40
2018-08-08T16:40:25.509Z,19.70
2018-08-08T16:42:53.784Z,20.80
2018-08-08T16:45:22.337Z,22.10
2018-08-08T16:47:50.613Z,23.50
2018-08-08T16:50:18.920Z,24.80
2018-08-08T16:52:47.254Z,25.70
2018-08-08T16:55:15.556Z,26.60
2018-08-08T16:57:43.761Z,27.70
2018-08-08T17:00:13.418Z,28.50
2018-08-08T17:02:41.683Z,29.30
2018-08-08T17:05:10.857Z,30.00
2018-08-08T17:07:39.188Z,30.40
2018-08-08T17:10:08.386Z,31.10
2018-08-08T17:12:36.765Z,31.30
2018-08-08T17:15:06.142Z,31.80
2018-08-08T17:17:34.361Z,32.20
2018-08-08T17:20:02.841Z,32.60
2018-08-08T17:22:31.191Z,33.20
2018-08-08T17:24:59.421Z,33.60
2018-08-08T17:27:27.771Z,34.20
2018-08-08T17:29:56.021Z,34.60
2018-08-08T17:32:24.249Z,34.90
2018-08-08T17:34:52.664Z,35.30
2018-08-08T17:37:20.958Z,35.80
2018-08-08T17:39:49.206Z,36.30
2018-08-08T17:42:17.482Z,36.80
2018-08-08T17:44:45.886Z,37.30
2018-08-08T17:47:14.245Z,37.60
2018-08-08T17:49:42.530Z,38.00
2018-08-08T17:52:10.787Z,38.20
2018-08-08T17:54:39.094Z,38.70
2018-08-08T17:57:07.801Z,38.80
2018-08-08T17:59:36.054Z,38.80
2018-08-08T18:02:04.337Z,38.90
2018-08-08T18:04:32.607Z,39.20
2018-08-08T18:07:00.902Z,39.50
2018-08-08T18:09:29.179Z,39.80
2018-08-08T18:11:57.409Z,40.10
2018-08-08T18:14:25.632Z,40.30
2018-08-08T18:16:53.892Z,40.50
2018-08-08T18:19:22.118Z,41.10
2018-08-08T18:21:50.358Z,41.40
2018-08-08T18:24:18.612Z,41.50
2018-08-08T18:31:06.326Z,41.90
2018-08-08T18:33:34.748Z,42.00
2018-08-08T18:36:02.958Z,43.50
2018-08-08T18:38:31.205Z,43.90
2018-08-08T18:40:59.422Z,44.00
2018-08-08T18:43:27.771Z,44.10
2018-08-08T18:45:55.975Z,44.10
2018-08-08T18:48:24.214Z,44.30
2018-08-08T18:50:52.416Z,44.40
2018-08-08T18:53:20.879Z,44.50
2018-08-08T18:55:49.151Z,44.90
2018-08-08T18:58:17.427Z,45.10
2018-08-08T19:00:45.704Z,45.40
2018-08-08T19:03:13.931Z,45.60
2018-08-08T19:05:42.266Z,45.80
2018-08-08T19:08:10.810Z,46.10
2018-08-08T19:10:39.070Z,46.30
2018-08-08T19:13:07.422Z,46.60
2018-08-08T19:15:35.670Z,46.40
2018-08-08T19:18:04.453Z,47.60
2018-08-08T19:20:32.683Z,47.50
2018-08-08T19:23:00.913Z,50.50
2018-08-08T19:25:30.509Z,52.80
2018-08-08T19:27:58.765Z,54.60
2018-08-08T19:30:27.017Z,55.40
2018-08-08T19:32:55.246Z,56.90
2018-08-08T19:35:23.753Z,57.90
2018-08-08T19:37:51.963Z,59.10
2018-08-08T19:40:20.204Z,60.30
2018-08-08T19:42:48.399Z,62.00
2018-08-08T19:45:16.615Z,63.30
2018-08-08T19:47:44.862Z,64.10
2018-08-08T19:50:13.081Z,64.70
2018-08-08T19:52:41.302Z,66.10
2018-08-08T19:55:09.529Z,66.40
2018-08-08T19:57:37.953Z,67.10
2018-08-08T20:00:06.274Z,67.00
2018-08-08T20:02:34.516Z,67.00
2018-08-08T20:05:02.829Z,67.20
2018-08-08T20:07:31.785Z,67.50
2018-08-08T20:10:00.012Z,67.90
2018-08-08T20:12:28.196Z,67.70
2018-08-08T20:14:56.442Z,67.40
2018-08-08T20:17:24.702Z,66.50
2018-08-08T20:19:53.111Z,66.30
2018-08-08T20:22:21.473Z,66.70
2018-08-08T20:24:49.708Z,66.40
2018-08-08T20:27:18.187Z,66.80
2018-08-08T20:29:46.418Z,66.50
2018-08-08T20:32:14.616Z,66.90
2018-08-08T20:34:42.932Z,67.60
2018-08-08T20:37:11.128Z,67.90
2018-08-08T20:39:39.362Z,66.90
2018-08-08T20:42:07.839Z,66.10
2018-08-08T20:44:36.092Z,65.20
2018-08-08T20:47:04.305Z,64.80
2018-08-08T20:49:32.545Z,64.10
2018-08-08T20:52:00.869Z,64.60
2018-08-08T20:54:29.077Z,64.90
2018-08-08T20:56:57.305Z,65.10
2018-08-08T20:59:25.498Z,65.50
2018-08-08T21:01:53.709Z,65.80
2018-08-08T21:04:22.026Z,65.60
2018-08-08T21:06:50.308Z,65.20
2018-08-08T21:09:18.618Z,65.10
2018-08-08T21:11:46.879Z,64.90
2018-08-08T21:14:15.169Z,65.00
2018-08-08T21:16:43.407Z,65.70
2018-08-08T21:19:11.622Z,66.10
2018-08-08T21:21:39.866Z,66.10
2018-08-08T21:24:08.069Z,66.80
2018-08-08T21:26:36.505Z,67.30
2018-08-08T21:29:04.726Z,67.50
2018-08-08T21:31:32.962Z,67.70
2018-08-08T21:34:01.190Z,67.60
2018-08-08T21:36:29.445Z,67.40
2018-08-08T21:38:57.641Z,67.50
2018-08-08T21:41:25.872Z,67.90
2018-08-08T21:43:54.143Z,68.60
2018-08-08T21:46:22.369Z,69.30
2018-08-08T21:48:50.645Z,70.00
2018-08-08T21:51:18.885Z,70.90
2018-08-08T21:53:58.306Z,70.30
2018-08-08T21:56:37.977Z,70.60
2018-08-08T21:59:17.553Z,71.10
2018-08-08T22:01:56.986Z,72.20
2018-08-08T22:04:36.569Z,72.90
2018-08-08T22:07:16.138Z,73.50
2018-08-08T22:09:55.706Z,73.70
2018-08-08T22:14:38.333Z,73.60
2018-08-08T22:17:17.946Z,74.00
2018-08-08T22:19:46.596Z,75.50
2018-08-08T22:22:14.869Z,76.00
2018-08-08T22:24:43.155Z,75.20
2018-08-08T22:27:11.385Z,75.90
2018-08-08T22:29:39.686Z,76.80
2018-08-08T22:32:07.913Z,76.30
2018-08-08T22:34:36.133Z,75.80
2018-08-08T22:37:04.385Z,75.50
2018-08-08T22:39:32.875Z,75.20
2018-08-08T22:42:01.152Z,75.70
2018-08-08T22:44:29.371Z,75.90
2018-08-08T22:46:57.588Z,76.20
2018-08-08T22:49:25.818Z,76.50
2018-08-08T22:51:54.163Z,77.60
2018-08-08T22:54:22.398Z,77.30
2018-08-08T22:56:50.671Z,77.60
2018-08-08T22:59:19.110Z,77.60
2018-08-08T23:01:47.321Z,77.80
2018-08-08T23:04:15.521Z,78.10
2018-08-08T23:06:43.753Z,78.20
2018-08-08T23:09:12.304Z,78.50
2018-08-08T23:11:40.534Z,78.40
2018-08-08T23:14:08.986Z,79.10
2018-08-08T23:16:37.765Z,78.90
2018-08-08T23:19:05.994Z,78.90
2018-08-08T23:21:34.253Z,78.70
2018-08-08T23:24:02.484Z,78.70
2018-08-08T23:26:30.669Z,78.50
2018-08-08T23:28:58.925Z,78.80
2018-08-08T23:31:27.166Z,78.70
2018-08-08T23:33:55.441Z,78.70
2018-08-08T23:36:23.778Z,78.30
2018-08-08T23:38:52.039Z,78.20
2018-08-08T23:41:20.251Z,77.90
2018-08-08T23:43:48.483Z,78.10
2018-08-08T23:46:16.721Z,78.00
2018-08-08T23:48:44.948Z,78.50
2018-08-08T23:51:13.194Z,78.40
2018-08-08T23:53:41.457Z,78.50
2018-08-08T23:56:09.776Z,79.20
2018-08-08T23:58:38.215Z,79.10
